Time;durP1;ratioP1;P1;durP2;ratioP2;P2;SDS_P1;SDS_P2;PMS_P1;PMS_P2;Temp;Humidity;BMP_temperature;BMP_pressure;BME280_temperature;BME280_humidity;BME280_pressure;Samples;Min_cycle;Max_cycle;Signal;HPM_P1;HPM_P2
2024/04/16 00:01:21;;;;;;;4.90;2.10;;;5.50;99.90;;;;;;5316611;26;20291;-54
2024/04/16 00:03:50;;;;;;;4.60;1.50;;;5.60;99.90;;;;;;5354892;26;20377;-55
2024/04/16 00:06:16;;;;;;;3.93;1.73;;;5.60;99.90;;;;;;5363109;26;20298;-55
2024/04/16 00:08:44;;;;;;;4.13;1.67;;;5.60;99.90;;;;;;5360196;26;20635;-56
2024/04/16 00:11:10;;;;;;;4.63;1.80;;;5.60;99.90;;;;;;5361419;26;20234;-56
2024/04/16 00:13:39;;;;;;;5.07;2.03;;;5.60;99.90;;;;;;5318879;26;20876;-59
2024/04/16 00:16:26;;;;;;;3.20;1.60;;;5.60;99.90;;;;;;5294800;26;20289;-52
2024/04/16 00:18:55;;;;;;;2.93;1.57;;;5.70;99.90;;;;;;5323170;26;20260;-57
2024/04/16 00:21:21;;;;;;;5.17;1.73;;;5.70;99.90;;;;;;5363520;26;20375;-55
2024/04/16 00:23:50;;;;;;;2.37;1.77;;;5.70;99.90;;;;;;5359093;26;20815;-57
2024/04/16 00:26:15;;;;;;;2.77;2.43;;;5.60;99.90;;;;;;5331085;26;20234;-59
2024/04/16 00:28:44;;;;;;;6.93;2.43;;;5.70;99.90;;;;;;5314544;26;20292;-54
2024/04/16 00:31:10;;;;;;;7.07;2.40;;;5.60;99.90;;;;;;5356013;26;20292;-51
2024/04/16 00:33:41;;;;;;;3.10;2.13;;;5.70;99.90;;;;;;5336721;26;20241;-49
2024/04/16 00:36:07;;;;;;;3.33;2.67;;;5.60;99.90;;;;;;5359469;26;20271;-46
2024/04/16 00:38:35;;;;;;;5.90;2.23;;;5.60;99.90;;;;;;5362600;26;20234;-52
2024/04/16 00:41:01;;;;;;;3.47;2.30;;;5.60;99.90;;;;;;5354056;26;20234;-50
2024/04/16 00:43:30;;;;;;;2.37;2.07;;;5.60;99.90;;;;;;5350566;26;20747;-57
2024/04/16 00:45:58;;;;;;;2.50;2.30;;;5.60;99.90;;;;;;5318379;26;20242;-52
2024/04/16 00:48:28;;;;;;;2.13;1.33;;;5.60;99.90;;;;;;5335653;26;20358;-53
2024/04/16 00:50:57;;;;;;;6.00;1.83;;;5.60;99.90;;;;;;5360905;26;20245;-57
2024/04/16 00:53:27;;;;;;;2.97;2.03;;;5.60;99.90;;;;;;5365880;26;20305;-53
2024/04/16 00:55:55;;;;;;;2.10;1.80;;;5.60;99.90;;;;;;5347704;26;20238;-54
2024/04/16 00:58:25;;;;;;;2.87;2.33;;;5.60;99.90;;;;;;5356507;26;20233;-54
2024/04/16 01:00:51;;;;;;;4.63;2.60;;;5.60;99.90;;;;;;5319619;26;21270;-54
2024/04/16 01:03:19;;;;;;;2.87;2.20;;;5.60;99.90;;;;;;5344987;26;20260;-56
2024/04/16 01:05:45;;;;;;;6.73;3.40;;;5.50;99.90;;;;;;5362349;26;20238;-56
2024/04/16 01:08:17;;;;;;;6.90;4.03;;;5.50;99.90;;;;;;5362985;26;20313;-55
2024/04/16 01:10:42;;;;;;;4.33;3.77;;;5.50;99.90;;;;;;5350239;26;20233;-59
2024/04/16 01:13:11;;;;;;;7.10;4.30;;;5.50;99.90;;;;;;5358680;26;20988;-51
2024/04/16 01:15:37;;;;;;;4.90;3.70;;;5.60;99.90;;;;;;5329337;26;20631;-57
2024/04/16 01:18:07;;;;;;;6.37;4.10;;;5.50;99.90;;;;;;5362215;26;20576;-56
2024/04/16 01:20:34;;;;;;;10.10;5.00;;;5.50;99.90;;;;;;5340164;26;20249;-59
2024/04/16 01:23:05;;;;;;;5.40;4.33;;;5.50;99.90;;;;;;5354467;26;20242;-55
2024/04/16 01:25:31;;;;;;;5.30;3.93;;;5.60;99.90;;;;;;5352619;26;20273;-58
2024/04/16 01:28:00;;;;;;;4.37;3.97;;;5.60;99.90;;;;;;5360426;26;20958;-54
2024/04/16 01:30:26;;;;;;;4.60;4.20;;;5.60;99.90;;;;;;5331037;26;20301;-53
2024/04/16 01:32:54;;;;;;;3.77;3.43;;;5.60;99.90;;;;;;5360360;26;20230;-55
2024/04/16 01:35:20;;;;;;;6.73;4.40;;;5.60;99.90;;;;;;5341199;26;20644;-55
2024/04/16 01:37:48;;;;;;;4.60;4.00;;;5.60;99.90;;;;;;5350417;26;20242;-57
2024/04/16 01:40:17;;;;;;;6.23;4.13;;;5.50;99.90;;;;;;5356852;26;20611;-55
2024/04/16 01:42:45;;;;;;;3.93;3.20;;;5.50;99.90;;;;;;5362257;26;20239;-57
2024/04/16 01:45:11;;;;;;;3.90;3.60;;;5.60;99.90;;;;;;5328765;26;20242;-49
2024/04/16 01:47:40;;;;;;;3.43;3.13;;;5.60;99.90;;;;;;5364386;26;20660;-58
2024/04/16 01:50:06;;;;;;;3.77;3.20;;;5.50;99.90;;;;;;5336219;26;20300;-56
2024/04/16 01:52:34;;;;;;;3.60;3.30;;;5.50;99.90;;;;;;5353385;26;20840;-55
2024/04/16 01:55:00;;;;;;;5.03;3.70;;;5.50;99.90;;;;;;5356995;26;20238;-53
2024/04/16 01:57:31;;;;;;;6.27;3.83;;;5.50;99.90;;;;;;5332561;26;20312;-54
2024/04/16 01:59:57;;;;;;;3.20;2.90;;;5.50;99.90;;;;;;5355092;26;20234;-52
2024/04/16 02:02:26;;;;;;;3.67;3.03;;;5.50;99.90;;;;;;5329281;26;20664;-52
2024/04/16 02:04:52;;;;;;;3.40;3.10;;;5.50;99.90;;;;;;5351641;26;20264;-55
2024/04/16 02:07:20;;;;;;;3.50;3.00;;;5.40;99.90;;;;;;5330287;26;20385;-54
2024/04/16 02:09:47;;;;;;;3.87;3.00;;;5.40;99.90;;;;;;5360909;26;20245;-57
2024/04/16 02:12:15;;;;;;;4.07;3.30;;;5.40;99.90;;;;;;5359558;26;20334;-56
2024/04/16 02:14:44;;;;;;;3.77;2.77;;;5.40;99.90;;;;;;5362079;26;20234;-53
2024/04/16 02:17:12;;;;;;;6.63;3.43;;;5.40;99.90;;;;;;5329769;26;20301;-55
2024/04/16 02:19:39;;;;;;;4.77;3.30;;;5.40;99.90;;;;;;5342431;26;20629;-54
2024/04/16 02:22:07;;;;;;;4.10;3.17;;;5.40;99.90;;;;;;5333048;26;20242;-53
2024/04/16 02:24:34;;;;;;;4.70;3.10;;;5.40;99.90;;;;;;5359538;26;20230;-51
2024/04/16 02:27:02;;;;;;;3.47;3.13;;;5.50;99.90;;;;;;5365612;26;20298;-48
2024/04/16 02:29:28;;;;;;;5.33;3.97;;;5.50;99.90;;;;;;5357207;26;20285;-51
2024/04/16 02:31:59;;;;;;;5.87;3.80;;;5.50;99.90;;;;;;5361869;26;20584;-50
2024/04/16 02:34:26;;;;;;;4.20;3.60;;;5.50;99.90;;;;;;5303328;26;20238;-58
2024/04/16 02:36:54;;;;;;;5.03;3.77;;;5.50;99.90;;;;;;5336969;26;20353;-58
2024/04/16 02:39:21;;;;;;;3.57;3.00;;;5.50;99.90;;;;;;5361015;26;20763;-57
2024/04/16 02:41:49;;;;;;;4.53;3.47;;;5.50;99.90;;;;;;5363242;26;20258;-58
2024/04/16 02:44:15;;;;;;;5.00;3.50;;;5.50;99.90;;;;;;5362024;26;20230;-56
2024/04/16 02:46:44;;;;;;;3.80;3.20;;;5.50;99.90;;;;;;5353367;26;20965;-56
2024/04/16 02:49:12;;;;;;;6.07;3.63;;;5.50;99.90;;;;;;5319171;26;20647;-57
2024/04/16 02:51:41;;;;;;;6.50;4.07;;;5.50;99.90;;;;;;5360880;26;20242;-52
2024/04/16 02:54:07;;;;;;;4.90;3.90;;;5.50;99.90;;;;;;5339153;26;20293;-54
2024/04/16 02:56:35;;;;;;;5.37;3.27;;;5.50;99.90;;;;;;5328594;26;21298;-49
2024/04/16 02:59:01;;;;;;;3.93;3.53;;;5.50;99.90;;;;;;5364096;26;20234;-52
2024/04/16 03:01:31;;;;;;;5.93;3.83;;;5.60;99.90;;;;;;5346008;26;20260;-55
2024/04/16 03:03:57;;;;;;;5.20;3.73;;;5.60;99.90;;;;;;5309012;26;20254;-50
2024/04/16 03:06:28;;;;;;;4.10;3.73;;;5.60;99.90;;;;;;5357259;26;20351;-53
2024/04/16 03:08:54;;;;;;;7.50;3.80;;;5.60;99.90;;;;;;5339444;26;20346;-49
2024/04/16 03:11:23;;;;;;;3.67;3.37;;;5.60;99.90;;;;;;5358016;26;20305;-54
2024/04/16 03:13:48;;;;;;;5.57;3.80;;;5.70;99.90;;;;;;5358216;26;20272;-49
2024/04/16 03:16:17;;;;;;;5.30;4.27;;;5.70;99.90;;;;;;5348571;26;20230;-52
2024/04/16 03:18:44;;;;;;;5.70;3.93;;;5.60;99.90;;;;;;5362136;26;20242;-50
2024/04/16 03:21:12;;;;;;;6.87;3.97;;;5.60;99.90;;;;;;5327364;26;20254;-53
2024/04/16 03:23:41;;;;;;;5.40;3.93;;;5.60;99.90;;;;;;5303659;26;22330;-47
2024/04/16 03:26:09;;;;;;;7.07;3.90;;;5.60;99.90;;;;;;5364334;26;20233;-50
2024/04/16 03:28:35;;;;;;;6.27;4.47;;;5.60;99.90;;;;;;5348990;26;20234;-50
2024/04/16 03:31:03;;;;;;;5.83;4.50;;;5.60;99.90;;;;;;5348581;26;20703;-50
2024/04/16 03:33:29;;;;;;;3.80;3.33;;;5.60;99.90;;;;;;5357712;26;20226;-52
2024/04/16 03:35:58;;;;;;;5.23;3.70;;;5.60;99.90;;;;;;5331232;26;20358;-49
2024/04/16 03:38:27;;;;;;;5.77;4.43;;;5.60;99.90;;;;;;5358504;26;20234;-54
2024/04/16 03:41:00;;;;;;;4.80;4.10;;;5.60;99.90;;;;;;5336717;26;20846;-55
2024/04/16 03:43:30;;;;;;;7.10;3.73;;;5.60;99.90;;;;;;5345415;26;20234;-57
2024/04/16 03:45:56;;;;;;;6.40;4.37;;;5.60;99.90;;;;;;5348943;26;20238;-56
2024/04/16 03:48:26;;;;;;;5.67;3.80;;;5.70;99.90;;;;;;5358955;26;20899;-57
2024/04/16 03:50:52;;;;;;;6.57;3.97;;;5.60;99.90;;;;;;5327211;26;20333;-57
2024/04/16 03:53:21;;;;;;;7.87;3.83;;;5.60;99.90;;;;;;5360353;26;20246;-57
2024/04/16 03:55:47;;;;;;;3.60;3.30;;;5.70;99.90;;;;;;5331054;26;20245;-55
2024/04/16 03:58:18;;;;;;;5.00;3.87;;;5.60;99.90;;;;;;5349684;26;20284;-55
2024/04/16 04:01:00;;;;;;;7.07;3.70;;;5.60;99.90;;;;;;5362844;26;20343;-55
2024/04/16 04:03:29;;;;;;;4.17;3.50;;;5.70;99.90;;;;;;5344244;26;20382;-56
2024/04/16 04:05:56;;;;;;;5.33;3.80;;;5.70;99.90;;;;;;5340621;26;20282;-57
2024/04/16 04:08:25;;;;;;;3.80;3.40;;;5.70;99.90;;;;;;5346074;26;20242;-57
2024/04/16 04:10:51;;;;;;;4.63;3.57;;;5.70;99.90;;;;;;5331909;26;20238;-59
2024/04/16 04:13:22;;;;;;;3.13;2.90;;;5.80;99.90;;;;;;5339836;26;20234;-58
2024/04/16 04:15:48;;;;;;;4.30;3.33;;;5.80;99.90;;;;;;5365537;26;20229;-59
2024/04/16 04:18:17;;;;;;;4.10;2.40;;;5.70;99.90;;;;;;5361113;26;20245;-55
2024/04/16 04:20:46;;;;;;;3.90;2.60;;;5.80;99.90;;;;;;5359279;26;20280;-59
2024/04/16 04:23:14;;;;;;;2.50;2.30;;;5.80;99.90;;;;;;5318650;26;20327;-60
2024/04/16 04:25:40;;;;;;;3.17;2.70;;;5.80;99.90;;;;;;5336429;26;20245;-60
2024/04/16 04:28:09;;;;;;;5.10;2.73;;;5.80;99.90;;;;;;5339135;26;20268;-53
2024/04/16 04:30:37;;;;;;;2.63;2.43;;;5.80;99.90;;;;;;5365905;26;20238;-54
2024/04/16 04:33:06;;;;;;;4.13;2.40;;;5.80;99.90;;;;;;5356498;26;20276;-53
2024/04/16 04:35:32;;;;;;;2.17;1.90;;;5.90;99.90;;;;;;5365081;26;20238;-54
2024/04/16 04:38:00;;;;;;;2.23;1.80;;;5.80;99.90;;;;;;5313600;26;20394;-54
2024/04/16 04:40:26;;;;;;;2.73;2.07;;;5.80;99.90;;;;;;5353103;26;20295;-53
2024/04/16 04:42:55;;;;;;;2.03;1.70;;;5.80;99.90;;;;;;5337232;26;21119;-49
2024/04/16 04:45:21;;;;;;;2.13;1.50;;;5.90;99.90;;;;;;5366083;26;20354;-50
2024/04/16 04:47:52;;;;;;;2.17;1.20;;;5.80;99.90;;;;;;5348706;26;20304;-50
2024/04/16 04:50:18;;;;;;;1.50;1.27;;;5.80;99.90;;;;;;5363304;26;20234;-52
2024/04/16 04:52:46;;;;;;;2.37;1.47;;;5.80;99.90;;;;;;5338815;26;20726;-49
2024/04/16 04:55:12;;;;;;;3.10;1.53;;;5.80;99.90;;;;;;5320548;26;20254;-50
2024/04/16 04:57:41;;;;;;;1.47;1.07;;;5.90;99.90;;;;;;5333453;26;20840;-48
2024/04/16 05:00:09;;;;;;;1.87;1.13;;;5.90;99.90;;;;;;5359453;26;20288;-47
2024/04/16 05:02:38;;;;;;;1.30;1.20;;;5.90;99.90;;;;;;5347554;26;20238;-48
2024/04/16 05:05:06;;;;;;;1.60;1.00;;;5.80;99.90;;;;;;5366212;26;20944;-47
2024/04/16 05:07:35;;;;;;;4.03;1.30;;;5.80;99.90;;;;;;5348506;26;20409;-58
2024/04/16 05:10:01;;;;;;;1.50;1.10;;;5.90;99.90;;;;;;5322278;26;20795;-54
2024/04/16 05:12:30;;;;;;;1.20;0.80;;;5.90;99.90;;;;;;5357915;26;20285;-55
2024/04/16 05:14:56;;;;;;;1.07;1.00;;;5.90;99.90;;;;;;5337023;26;20238;-54
2024/04/16 05:17:25;;;;;;;2.97;0.87;;;5.80;99.90;;;;;;5365411;26;20226;-54
2024/04/16 05:19:51;;;;;;;1.43;0.90;;;5.80;99.90;;;;;;5340323;26;21043;-53
2024/04/16 05:22:22;;;;;;;1.43;0.80;;;5.90;99.90;;;;;;5357154;26;20909;-54
2024/04/16 05:24:48;;;;;;;6.90;0.90;;;5.90;99.90;;;;;;5318550;26;20233;-58
2024/04/16 05:27:17;;;;;;;2.70;0.80;;;5.90;99.90;;;;;;5356575;26;20287;-56
2024/04/16 05:29:42;;;;;;;0.77;0.60;;;6.00;99.90;;;;;;5338191;26;20635;-55
2024/04/16 05:32:12;;;;;;;3.70;0.70;;;5.90;99.90;;;;;;5321953;26;20238;-57
2024/04/16 05:34:38;;;;;;;0.73;0.50;;;5.90;99.90;;;;;;5339384;26;20230;-57
2024/04/16 05:37:07;;;;;;;0.80;0.80;;;5.90;99.90;;;;;;5359270;26;20308;-51
2024/04/16 05:39:35;;;;;;;1.70;0.70;;;6.00;99.90;;;;;;5336611;26;21671;-55
2024/04/16 05:42:04;;;;;;;2.03;0.80;;;6.00;99.90;;;;;;5321251;26;20782;-52
2024/04/16 05:44:30;;;;;;;1.43;0.73;;;6.00;99.90;;;;;;5333466;26;20569;-51
2024/04/16 05:46:58;;;;;;;3.17;1.00;;;6.00;99.90;;;;;;5357945;26;20242;-53
2024/04/16 05:49:24;;;;;;;1.30;0.63;;;6.10;99.90;;;;;;5340053;26;21144;-50
2024/04/16 05:51:54;;;;;;;1.43;0.60;;;6.10;99.90;;;;;;5366053;26;20280;-54
2024/04/16 05:54:20;;;;;;;0.60;0.60;;;6.20;99.90;;;;;;5348197;26;20230;-57
2024/04/16 05:56:51;;;;;;;1.53;0.50;;;6.20;99.90;;;;;;5329507;26;20334;-52
2024/04/16 05:59:17;;;;;;;0.40;0.40;;;6.20;99.90;;;;;;5343653;26;20246;-57
2024/04/16 06:01:45;;;;;;;3.83;0.70;;;6.30;99.90;;;;;;5325030;26;20268;-53
2024/04/16 06:04:11;;;;;;;1.10;0.50;;;6.30;99.90;;;;;;5346187;26;20245;-54
2024/04/16 06:06:40;;;;;;;0.60;0.60;;;6.30;99.90;;;;;;5356798;26;20238;-54
2024/04/16 06:09:05;;;;;;;1.53;0.50;;;6.30;99.90;;;;;;5363651;26;20284;-56
2024/04/16 06:11:34;;;;;;;0.70;0.70;;;6.30;99.90;;;;;;5354306;26;20670;-53
2024/04/16 06:14:03;;;;;;;2.00;0.67;;;6.40;99.90;;;;;;5322695;26;20849;-48
2024/04/16 06:16:31;;;;;;;2.77;0.70;;;6.40;99.90;;;;;;5324438;26;20504;-53
2024/04/16 06:18:57;;;;;;;1.33;0.80;;;6.40;99.90;;;;;;5362127;26;20841;-54
2024/04/16 06:21:25;;;;;;;2.07;0.90;;;6.40;99.90;;;;;;5353857;26;20242;-52
2024/04/16 06:23:51;;;;;;;3.10;1.10;;;6.40;99.90;;;;;;5354899;26;20237;-54
2024/04/16 06:26:20;;;;;;;1.53;1.13;;;6.40;99.90;;;;;;5348528;26;21205;-51
2024/04/16 06:28:46;;;;;;;1.60;1.50;;;6.50;99.90;;;;;;5318196;26;20284;-54
2024/04/16 06:31:17;;;;;;;1.37;1.27;;;6.50;99.90;;;;;;5327797;26;20481;-54
2024/04/16 06:33:43;;;;;;;2.07;1.80;;;6.60;99.90;;;;;;5364917;26;20230;-54
2024/04/16 06:36:11;;;;;;;2.30;2.10;;;6.60;99.90;;;;;;5353166;26;20828;-52
2024/04/16 06:38:37;;;;;;;4.23;3.60;;;6.60;99.90;;;;;;5365509;26;20230;-55
2024/04/16 06:41:06;;;;;;;4.47;3.47;;;6.60;99.90;;;;;;5351888;26;20233;-53
2024/04/16 06:43:32;;;;;;;4.93;3.93;;;6.60;99.90;;;;;;5320249;26;20825;-53
2024/04/16 06:46:00;;;;;;;4.80;4.30;;;6.60;99.90;;;;;;5359285;26;20339;-53
2024/04/16 06:48:30;;;;;;;5.10;4.57;;;6.60;99.90;;;;;;5349853;26;20375;-53
2024/04/16 06:50:59;;;;;;;4.67;4.27;;;6.70;99.90;;;;;;5362744;26;20584;-54
2024/04/16 06:53:25;;;;;;;5.20;4.20;;;6.70;99.90;;;;;;5353986;26;20241;-52
2024/04/16 06:56:00;;;;;;;7.67;4.30;;;6.70;99.90;;;;;;5356661;26;20230;-52
2024/04/16 06:58:26;;;;;;;5.90;4.40;;;6.80;99.90;;;;;;5349388;26;20335;-54
2024/04/16 07:00:56;;;;;;;5.43;4.40;;;6.80;99.90;;;;;;5324877;26;20250;-51
2024/04/16 07:03:22;;;;;;;3.77;3.47;;;6.80;99.90;;;;;;5334414;26;20301;-54
2024/04/16 07:05:53;;;;;;;5.07;3.73;;;6.90;99.90;;;;;;5360925;26;20338;-52
2024/04/16 07:08:19;;;;;;;3.43;3.03;;;6.90;99.90;;;;;;5343941;26;22878;-51
2024/04/16 07:10:48;;;;;;;4.33;3.33;;;6.80;99.90;;;;;;5351569;26;20234;-54
2024/04/16 07:13:15;;;;;;;5.73;3.20;;;6.90;99.90;;;;;;5323811;26;20238;-50
2024/04/16 07:15:44;;;;;;;3.83;3.37;;;6.90;99.90;;;;;;5322276;26;20246;-51
2024/04/16 07:18:10;;;;;;;3.90;2.93;;;7.00;99.90;;;;;;5303920;26;20350;-50
2024/04/16 07:20:39;;;;;;;3.20;2.90;;;7.10;99.90;;;;;;5361189;26;20250;-52
2024/04/16 07:23:07;;;;;;;5.07;3.03;;;7.10;99.90;;;;;;5350953;26;20480;-50
2024/04/16 07:25:36;;;;;;;3.00;2.80;;;7.10;99.90;;;;;;5342546;26;20246;-54
2024/04/16 07:28:02;;;;;;;3.10;2.70;;;7.10;99.90;;;;;;5344460;26;20248;-54
2024/04/16 07:30:30;;;;;;;4.10;3.20;;;7.10;99.90;;;;;;5323568;26;20246;-50
2024/04/16 07:32:56;;;;;;;3.50;2.93;;;7.10;99.90;;;;;;5323940;26;20545;-52
2024/04/16 07:35:25;;;;;;;4.80;3.03;;;7.20;99.90;;;;;;5363480;26;20290;-52
2024/04/16 07:37:52;;;;;;;3.30;3.00;;;7.30;99.90;;;;;;5337010;26;20244;-54
2024/04/16 07:40:24;;;;;;;3.67;3.37;;;7.40;99.90;;;;;;5331321;26;20292;-54
2024/04/16 07:42:50;;;;;;;3.60;3.30;;;7.40;99.90;;;;;;5352527;26;20272;-55
2024/04/16 07:45:19;;;;;;;3.50;3.20;;;7.40;99.90;;;;;;5314561;26;20340;-54
2024/04/16 07:47:45;;;;;;;5.00;3.30;;;7.40;99.90;;;;;;5354416;26;20234;-59
2024/04/16 07:50:13;;;;;;;2.40;2.20;;;7.40;99.90;;;;;;5333446;26;20869;-54
2024/04/16 07:52:39;;;;;;;2.20;2.00;;;7.30;99.90;;;;;;5352590;26;20428;-53
2024/04/16 07:55:08;;;;;;;2.03;1.93;;;7.40;99.90;;;;;;5337979;26;20786;-49
2024/04/16 07:57:37;;;;;;;2.53;2.00;;;7.40;99.90;;;;;;5358487;26;20281;-53
2024/04/16 08:00:06;;;;;;;1.93;1.83;;;7.40;99.90;;;;;;5316128;26;20238;-52
2024/04/16 08:02:37;;;;;;;2.70;2.50;;;7.40;99.90;;;;;;5362331;26;20739;-55
2024/04/16 08:05:07;;;;;;;3.40;2.07;;;7.50;99.90;;;;;;5319580;26;20293;-52
2024/04/16 08:07:33;;;;;;;4.00;2.43;;;7.60;99.90;;;;;;5349417;26;21110;-53
2024/04/16 08:10:03;;;;;;;6.60;2.90;;;7.70;99.90;;;;;;5352985;26;20795;-50
2024/04/16 08:12:29;;;;;;;4.57;2.80;;;7.80;99.90;;;;;;5356620;26;20572;-52
2024/04/16 08:15:01;;;;;;;3.50;3.10;;;7.90;99.90;;;;;;5336224;26;20245;-50
2024/04/16 08:17:27;;;;;;;4.00;2.70;;;8.00;99.90;;;;;;5341025;26;20245;-54
2024/04/16 08:19:55;;;;;;;3.90;2.73;;;8.00;99.90;;;;;;5320294;26;20334;-53
2024/04/16 08:22:22;;;;;;;5.20;3.43;;;8.10;99.90;;;;;;5345624;26;20265;-54
2024/04/16 08:24:52;;;;;;;5.23;3.90;;;8.10;99.90;;;;;;5362735;26;20394;-53
2024/04/16 08:27:21;;;;;;;5.47;4.10;;;8.10;99.90;;;;;;5339819;26;20578;-52
2024/04/16 08:29:51;;;;;;;4.70;4.30;;;8.20;99.90;;;;;;5352846;26;20729;-53
2024/04/16 08:32:20;;;;;;;5.23;4.13;;;8.20;99.90;;;;;;5318164;26;20237;-53
2024/04/16 08:34:49;;;;;;;4.17;3.30;;;8.20;99.90;;;;;;5340129;26;21120;-50
2024/04/16 08:37:15;;;;;;;3.33;2.73;;;8.20;99.90;;;;;;5333355;26;20246;-52
2024/04/16 08:39:43;;;;;;;4.27;2.50;;;8.30;99.90;;;;;;5360099;26;20236;-53
2024/04/16 08:42:11;;;;;;;5.23;2.93;;;8.20;99.90;;;;;;5319280;26;20284;-51
2024/04/16 08:44:41;;;;;;;4.13;2.93;;;8.10;99.90;;;;;;5359557;26;20281;-54
2024/04/16 08:47:08;;;;;;;3.93;2.70;;;8.10;99.90;;;;;;5267816;26;20246;-52
2024/04/16 08:49:40;;;;;;;3.97;2.90;;;7.90;99.90;;;;;;5342995;26;20311;-53
2024/04/16 08:52:09;;;;;;;3.03;2.67;;;7.90;99.90;;;;;;5335206;26;20300;-54
2024/04/16 08:54:40;;;;;;;3.77;2.33;;;8.10;99.90;;;;;;5366407;26;20246;-52
2024/04/16 08:57:06;;;;;;;6.17;2.40;;;8.30;99.90;;;;;;5345126;26;20250;-53
2024/04/16 08:59:35;;;;;;;2.33;1.97;;;8.40;99.90;;;;;;5354777;26;20675;-54
2024/04/16 09:02:01;;;;;;;2.90;1.90;;;8.40;99.90;;;;;;5308367;26;20246;-51
2024/04/16 09:04:31;;;;;;;2.40;1.70;;;8.40;99.90;;;;;;5349480;26;20515;-50
2024/04/16 09:07:02;;;;;;;5.60;1.80;;;8.40;99.90;;;;;;5330796;26;20247;-50
2024/04/16 09:09:31;;;;;;;3.77;2.10;;;8.50;99.90;;;;;;5359800;26;20339;-51
2024/04/16 09:11:58;;;;;;;4.43;2.17;;;8.50;99.90;;;;;;5358060;26;20284;-48
2024/04/16 09:14:26;;;;;;;5.80;2.40;;;8.50;99.90;;;;;;5345516;26;20276;-51
2024/04/16 09:16:52;;;;;;;4.90;2.40;;;8.40;99.90;;;;;;5349558;26;20659;-52
2024/04/16 09:19:26;;;;;;;3.17;1.87;;;8.30;99.90;;;;;;5327012;26;20273;-55
2024/04/16 09:21:52;;;;;;;5.10;2.33;;;8.30;99.90;;;;;;5334202;26;21197;-52
2024/04/16 09:24:25;;;;;;;3.10;1.97;;;8.30;99.90;;;;;;5364469;26;20591;-50
2024/04/16 09:26:51;;;;;;;7.13;1.80;;;8.30;99.90;;;;;;5359590;26;20316;-53
2024/04/16 09:29:25;;;;;;;3.90;1.70;;;8.40;99.90;;;;;;5340738;26;20388;-52
2024/04/16 09:32:01;;;;;;;3.63;2.17;;;8.50;99.90;;;;;;5350810;26;20249;-48
2024/04/16 09:34:30;;;;;;;3.07;1.70;;;8.50;99.90;;;;;;5323751;26;20747;-52
2024/04/16 09:36:59;;;;;;;5.87;2.20;;;8.60;99.90;;;;;;5332098;26;21214;-52
2024/04/16 09:39:30;;;;;;;1.50;1.40;;;8.80;99.90;;;;;;5363023;26;20582;-51
2024/04/16 09:41:58;;;;;;;3.30;1.60;;;8.90;99.90;;;;;;5355531;26;21090;-52
2024/04/16 09:44:28;;;;;;;4.63;1.80;;;9.00;99.90;;;;;;5352778;26;20315;-51
2024/04/16 09:46:56;;;;;;;3.10;1.97;;;9.10;99.90;;;;;;5358586;26;20331;-54
2024/04/16 09:49:26;;;;;;;2.60;1.77;;;9.10;99.90;;;;;;5325000;26;20258;-54
2024/04/16 09:51:55;;;;;;;2.60;1.67;;;9.10;99.90;;;;;;5324304;26;20265;-54
2024/04/16 09:54:25;;;;;;;4.43;1.87;;;9.10;99.90;;;;;;5363414;26;20276;-52
2024/04/16 09:56:56;;;;;;;5.00;2.00;;;9.10;99.90;;;;;;5346710;26;20320;-54
2024/04/16 09:59:27;;;;;;;2.97;1.53;;;9.10;99.90;;;;;;5345541;26;20233;-54
2024/04/16 10:01:53;;;;;;;2.87;1.57;;;9.10;99.90;;;;;;5358536;26;20230;-55
2024/04/16 10:04:24;;;;;;;3.73;2.20;;;9.20;99.90;;;;;;5345111;26;20239;-50
2024/04/16 10:06:50;;;;;;;3.40;2.27;;;9.20;99.90;;;;;;5334653;26;20293;-55
2024/04/16 10:09:19;;;;;;;2.37;1.83;;;9.20;99.90;;;;;;5322817;26;20284;-54
2024/04/16 10:11:47;;;;;;;5.40;2.20;;;9.30;99.90;;;;;;5345339;26;20301;-53
2024/04/16 10:14:19;;;;;;;2.67;1.83;;;9.20;99.90;;;;;;5353069;26;20225;-54
2024/04/16 10:16:46;;;;;;;3.53;2.07;;;9.10;99.90;;;;;;5357226;26;20242;-54
2024/04/16 10:19:17;;;;;;;7.07;2.37;;;9.20;99.90;;;;;;5360330;26;20225;-55
2024/04/16 10:21:49;;;;;;;4.27;2.70;;;9.10;99.90;;;;;;5314633;26;21309;-53
2024/04/16 10:24:17;;;;;;;3.13;2.10;;;9.10;99.90;;;;;;5277754;26;20276;-55
2024/04/16 10:26:47;;;;;;;6.23;1.80;;;9.20;99.90;;;;;;5350417;26;20242;-53
2024/04/16 10:29:16;;;;;;;2.53;1.40;;;9.30;99.90;;;;;;5343048;26;20254;-54
2024/04/16 10:31:48;;;;;;;2.57;1.60;;;9.20;99.90;;;;;;5362893;26;20293;-54
2024/04/16 10:34:20;;;;;;;1.60;1.50;;;9.30;99.90;;;;;;5358840;26;20266;-56
2024/04/16 10:36:49;;;;;;;1.63;1.30;;;9.50;99.90;;;;;;5314051;26;20360;-52
2024/04/16 10:39:16;;;;;;;4.10;1.30;;;9.70;99.90;;;;;;5314464;26;20460;-52
2024/04/16 10:41:53;;;;;;;1.40;1.30;;;9.80;99.90;;;;;;5351338;26;20242;-54
2024/04/16 10:44:22;;;;;;;1.70;0.97;;;9.90;99.90;;;;;;5362783;26;20982;-50
2024/04/16 10:46:52;;;;;;;3.50;1.33;;;10.00;99.90;;;;;;5348260;26;20293;-52
2024/04/16 10:49:22;;;;;;;1.33;1.17;;;9.90;99.90;;;;;;5362438;26;20260;-53
2024/04/16 10:51:52;;;;;;;2.07;1.40;;;10.00;99.90;;;;;;5324275;26;20246;-50
2024/04/16 10:54:18;;;;;;;2.70;1.37;;;10.00;99.90;;;;;;5286628;26;20242;-50
2024/04/16 10:56:50;;;;;;;2.83;1.23;;;9.90;99.90;;;;;;5352498;26;20233;-49
2024/04/16 10:59:17;;;;;;;2.03;1.20;;;9.80;99.90;;;;;;5345458;26;20258;-53
2024/04/16 11:01:49;;;;;;;2.30;1.23;;;9.80;99.90;;;;;;5353460;26;20311;-52
2024/04/16 11:04:17;;;;;;;1.77;1.30;;;9.90;99.90;;;;;;5354677;26;21078;-51
2024/04/16 11:06:46;;;;;;;3.97;1.40;;;9.80;99.90;;;;;;5350435;26;20289;-54
2024/04/16 11:09:12;;;;;;;1.80;0.90;;;10.00;99.90;;;;;;5301772;26;20250;-53
2024/04/16 11:11:42;;;;;;;0.97;0.80;;;10.10;99.90;;;;;;5344212;26;20491;-54
2024/04/16 11:14:08;;;;;;;2.23;0.90;;;10.10;99.90;;;;;;5350906;26;20305;-54
2024/04/16 11:16:37;;;;;;;1.73;1.10;;;10.10;99.90;;;;;;5349784;26;20245;-54
2024/04/16 11:19:05;;;;;;;2.13;1.20;;;10.10;99.90;;;;;;5355499;26;20335;-54
2024/04/16 11:21:35;;;;;;;1.93;1.00;;;10.00;99.90;;;;;;5347764;26;21001;-56
2024/04/16 11:24:02;;;;;;;2.17;1.40;;;9.60;99.90;;;;;;5320794;26;20301;-53
2024/04/16 11:26:31;;;;;;;3.33;1.30;;;9.40;99.90;;;;;;5329084;26;20253;-55
2024/04/16 11:28:57;;;;;;;1.40;1.30;;;9.20;99.90;;;;;;5354928;26;20273;-56
2024/04/16 11:31:26;;;;;;;2.33;1.47;;;9.10;99.90;;;;;;5332896;26;20950;-55
2024/04/16 11:33:52;;;;;;;1.90;1.17;;;9.00;99.90;;;;;;5350426;26;20281;-56
2024/04/16 11:36:23;;;;;;;3.33;1.23;;;8.90;99.90;;;;;;5345963;26;20237;-54
2024/04/16 11:38:51;;;;;;;2.63;1.37;;;8.80;99.90;;;;;;5305924;26;20741;-53
2024/04/16 11:41:20;;;;;;;1.93;1.40;;;8.80;99.90;;;;;;5328082;26;20277;-52
2024/04/16 11:43:47;;;;;;;2.10;1.20;;;8.90;99.90;;;;;;5340263;26;20281;-53
2024/04/16 11:46:19;;;;;;;2.70;1.87;;;8.90;99.90;;;;;;5345483;26;20260;-53
2024/04/16 11:48:45;;;;;;;3.43;1.97;;;8.90;99.90;;;;;;5335082;26;20755;-51
2024/04/16 11:51:14;;;;;;;3.67;1.97;;;9.00;99.90;;;;;;5355751;26;20272;-54
2024/04/16 11:53:44;;;;;;;3.43;1.80;;;9.10;99.90;;;;;;5336920;26;20241;-54
2024/04/16 11:56:13;;;;;;;2.63;1.70;;;9.10;99.90;;;;;;5322563;26;20327;-50
2024/04/16 11:58:39;;;;;;;2.43;1.50;;;9.20;99.90;;;;;;5324112;26;20301;-53
2024/04/16 12:01:08;;;;;;;2.50;1.77;;;9.30;99.90;;;;;;5336513;26;20359;-55
2024/04/16 12:03:33;;;;;;;4.00;1.53;;;9.40;99.90;;;;;;5342477;26;20282;-52
2024/04/16 12:06:02;;;;;;;2.60;1.57;;;9.30;99.90;;;;;;5365521;26;21128;-53
2024/04/16 12:08:28;;;;;;;2.43;1.80;;;9.30;99.90;;;;;;5365636;26;20775;-51
2024/04/16 12:10:59;;;;;;;2.13;1.80;;;9.40;99.90;;;;;;5321472;26;20272;-54
2024/04/16 12:13:25;;;;;;;2.50;1.77;;;9.40;99.90;;;;;;5319777;26;20289;-51
2024/04/16 12:15:54;;;;;;;1.60;1.50;;;9.40;99.90;;;;;;5324405;26;20565;-53
2024/04/16 12:18:20;;;;;;;1.70;1.60;;;9.40;99.90;;;;;;5346943;26;20242;-50
2024/04/16 12:20:48;;;;;;;4.00;1.70;;;9.50;99.90;;;;;;5357227;26;20249;-51
2024/04/16 12:23:17;;;;;;;2.53;1.60;;;9.40;99.90;;;;;;5363290;26;20628;-54
2024/04/16 12:25:43;;;;;;;2.77;1.60;;;9.30;99.90;;;;;;5321546;26;20234;-52
2024/04/16 12:28:14;;;;;;;2.50;1.57;;;9.30;99.90;;;;;;5330341;26;20242;-52
2024/04/16 12:30:40;;;;;;;1.87;1.00;;;9.30;99.90;;;;;;5328883;26;20289;-51
2024/04/16 12:33:08;;;;;;;0.83;0.83;;;9.20;99.90;;;;;;5360916;26;20230;-55
2024/04/16 12:35:34;;;;;;;1.67;1.00;;;9.20;99.90;;;;;;5347111;26;20377;-53
2024/04/16 12:38:03;;;;;;;1.90;0.90;;;9.20;99.90;;;;;;5354013;26;20369;-50
2024/04/16 12:40:28;;;;;;;0.90;0.90;;;9.40;99.90;;;;;;5351154;26;20230;-51
2024/04/16 12:42:58;;;;;;;0.77;0.77;;;9.50;99.90;;;;;;5286021;26;20350;-53
2024/04/16 12:45:27;;;;;;;1.23;0.90;;;9.40;99.90;;;;;;5354187;26;20337;-56
2024/04/16 12:47:55;;;;;;;0.73;0.60;;;9.40;99.90;;;;;;5354598;26;20303;-56
2024/04/16 12:50:21;;;;;;;1.50;0.63;;;9.30;99.90;;;;;;5340814;26;21151;-54
2024/04/16 12:52:50;;;;;;;0.73;0.60;;;9.10;99.90;;;;;;5366726;26;20292;-54
2024/04/16 12:55:16;;;;;;;0.50;0.50;;;8.90;99.90;;;;;;5341884;26;21069;-52
2024/04/16 12:57:44;;;;;;;0.83;0.40;;;8.70;99.90;;;;;;5313210;26;20321;-53
2024/04/16 13:00:11;;;;;;;3.27;0.60;;;8.70;99.90;;;;;;5360588;26;20617;-53
2024/04/16 13:02:44;;;;;;;0.50;0.40;;;8.60;99.90;;;;;;5350663;26;20253;-56